Time;durP1;ratioP1;P1;durP2;ratioP2;P2;SDS_P1;SDS_P2;PMS_P1;PMS_P2;Temp;Humidity;BMP_temperature;BMP_pressure;BME280_temperature;BME280_humidity;BME280_pressure;Samples;Min_cycle;Max_cycle;Signal;HPM_P1;HPM_P2
2021/12/10 00:00:44;;;;;;;12.53;6.73;;;;;;;12.20;47.00;99711.72;5036351;28;20040;-71
2021/12/10 00:03:22;;;;;;;14.00;6.37;;;;;;;13.24;43.65;99695.66;5039905;28;20061;-72
2021/12/10 00:05:56;;;;;;;19.30;7.83;;;;;;;13.04;44.88;99699.94;5048059;28;20032;-71
2021/12/10 00:08:23;;;;;;;26.07;6.97;;;;;;;12.51;46.41;99697.53;5052120;28;20548;-72
2021/12/10 00:11:00;;;;;;;22.70;7.60;;;;;;;13.09;44.85;99693.66;5051990;28;20393;-72
2021/12/10 00:13:26;;;;;;;27.03;7.43;;;;;;;12.51;46.18;99693.13;5035506;28;20032;-71
2021/12/10 00:15:54;;;;;;;19.27;7.00;;;;;;;12.64;44.89;99685.69;5036086;28;20036;-70
2021/12/10 00:18:24;;;;;;;25.13;7.67;;;;;;;12.80;46.18;99669.38;5049903;28;20020;-71
2021/12/10 00:20:57;;;;;;;14.80;7.07;;;;;;;11.91;47.03;99679.50;5043781;28;20413;-71
2021/12/10 00:23:22;;;;;;;20.38;7.97;;;;;;;11.54;48.46;99662.41;5041027;28;20359;-71
2021/12/10 00:25:51;;;;;;;23.17;8.70;;;;;;;12.08;47.37;99663.22;5040149;28;20032;-71
2021/12/10 00:28:22;;;;;;;16.83;7.57;;;;;;;11.65;48.86;99675.97;5037989;28;20069;-71
2021/12/10 00:31:17;;;;;;;16.30;8.23;;;;;;;12.47;46.58;99665.31;5040624;28;20024;-71
2021/12/10 00:33:56;;;;;;;21.33;9.30;;;;;;;11.67;49.49;99650.59;5055109;28;20024;-71
2021/12/10 00:36:22;;;;;;;22.03;9.43;;;;;;;12.29;48.01;99643.25;5033923;28;20376;-71
2021/12/10 00:38:48;;;;;;;19.80;8.83;;;;;;;12.36;47.24;99634.28;5036314;28;20074;-72
2021/12/10 00:41:14;;;;;;;23.43;8.63;;;;;;;12.69;46.36;99633.06;5033830;28;21506;-71
2021/12/10 00:43:40;;;;;;;20.00;8.30;;;;;;;13.12;45.49;99633.19;5036668;28;20388;-72
2021/12/10 00:46:06;;;;;;;28.27;9.53;;;;;;;12.94;45.34;99614.66;5054278;28;20039;-71
2021/12/10 00:48:32;;;;;;;25.07;9.00;;;;;;;13.65;43.46;99617.03;5033151;28;20216;-71
2021/12/10 00:51:00;;;;;;;21.80;9.10;;;;;;;12.70;44.82;99612.03;5035798;28;20111;-71
2021/12/10 00:53:26;;;;;;;19.40;8.87;;;;;;;12.56;45.71;99604.72;5052845;28;20492;-70
2021/12/10 00:55:52;;;;;;;19.80;8.63;;;;;;;13.09;44.71;99607.06;5029506;28;20126;-72
2021/12/10 00:58:18;;;;;;;18.07;8.50;;;;;;;13.09;44.25;99604.47;5031124;28;20071;-71
2021/12/10 01:00:55;;;;;;;14.97;7.70;;;;;;;13.93;42.14;99583.50;5051632;28;20028;-71
2021/12/10 01:03:26;;;;;;;18.07;9.13;;;;;;;13.39;43.00;99579.63;5028833;28;20064;-71
2021/12/10 01:05:55;;;;;;;21.57;9.00;;;;;;;12.57;45.03;99571.50;5050274;28;20024;-71
2021/12/10 01:08:22;;;;;;;22.63;9.40;;;;;;;11.44;47.41;99569.38;5040689;28;20039;-71
2021/12/10 01:11:14;;;;;;;19.93;9.40;;;;;;;11.92;47.75;99568.59;5034127;28;20032;-71
2021/12/10 01:13:43;;;;;;;19.83;8.32;;;;;;;12.36;46.53;99555.69;5034152;28;20102;-71
2021/12/10 01:23:46;;;;;;;24.40;9.03;;;;;;;11.73;47.92;99543.97;5052636;28;20024;-71
2021/12/10 01:27:33;;;;;;;20.43;9.57;;;;;;;12.18;46.29;99532.78;5051295;28;20055;-71
2021/12/10 01:30:07;;;;;;;30.40;9.57;;;;;;;11.61;47.09;99534.78;5034872;28;20025;-71
2021/12/10 01:32:36;;;;;;;19.47;9.43;;;;;;;11.66;47.91;99525.88;5031698;28;20024;-71
2021/12/10 01:35:05;;;;;;;24.47;8.53;;;;;;;12.27;46.15;99529.81;5037629;28;20025;-71
2021/12/10 01:37:30;;;;;;;23.20;8.73;;;;;;;11.41;47.76;99512.78;5034318;28;20032;-71
2021/12/10 01:39:56;;;;;;;15.33;6.80;;;;;;;11.50;46.92;99511.63;5034313;28;20025;-70
2021/12/10 01:44:54;;;;;;;19.67;7.60;;;;;;;11.61;47.24;99517.34;5059646;28;20506;-71
2021/12/10 01:47:23;;;;;;;16.10;7.70;;;;;;;12.19;45.66;99513.53;5035515;28;20028;-71
2021/12/10 01:49:49;;;;;;;13.63;5.13;;;;;;;11.15;46.76;99511.06;5050359;28;20103;-71
2021/12/10 01:52:16;;;;;;;26.30;8.83;;;;;;;11.94;46.55;99496.13;5031909;28;20472;-71
2021/12/10 01:54:45;;;;;;;18.00;6.67;;;;;;;10.64;48.41;99499.63;5038417;28;20047;-71
2021/12/10 01:57:13;;;;;;;11.83;6.63;;;;;;;12.00;46.10;99484.56;5032650;28;20028;-71
2021/12/10 01:59:39;;;;;;;14.33;7.27;;;;;;;11.15;48.74;99490.13;5035478;28;20107;-71
2021/12/10 02:02:12;;;;;;;16.73;6.60;;;;;;;12.14;46.48;99476.19;5033923;28;20040;-71
2021/12/10 02:04:39;;;;;;;;;;;;;;;12.27;45.74;99471.31;5032761;28;20039;-71
2021/12/10 02:07:08;;;;;;;14.47;6.33;;;;;;;11.94;46.11;99464.69;5050069;28;19916;-71
2021/12/10 02:09:33;;;;;;;20.80;5.93;;;;;;;11.94;46.19;99459.47;5032620;28;20116;-71
2021/12/10 02:11:59;;;;;;;16.23;6.07;;;;;;;11.29;46.89;99451.31;5058214;28;20170;-71
2021/12/10 02:14:25;;;;;;;12.63;5.80;;;;;;;11.91;47.30;99451.69;5034517;28;20119;-71
2021/12/10 02:16:52;;;;;;;12.97;6.00;;;;;;;10.79;48.36;99436.41;5049354;28;20028;-72
2021/12/10 02:19:18;;;;;;;14.33;5.60;;;;;;;11.42;46.72;99425.53;5033557;28;20920;-71
2021/12/10 02:21:45;;;;;;;11.67;5.90;;;;;;;11.73;47.32;99436.66;5037086;28;20098;-71
2021/12/10 02:24:11;;;;;;;11.10;5.03;;;;;;;11.54;47.03;99424.25;5039975;28;20032;-71
2021/12/10 02:26:50;;;;;;;19.93;6.20;;;;;;;11.30;47.79;99421.59;5034277;28;20530;-71
2021/12/10 02:29:20;;;;;;;10.20;5.63;;;;;;;11.85;45.55;99423.09;5046964;28;20071;-72
2021/12/10 02:31:45;;;;;;;10.20;5.30;;;;;;;12.39;45.40;99407.94;5051569;28;20037;-71
2021/12/10 02:34:11;;;;;;;11.63;4.77;;;;;;;12.47;45.03;99416.34;5030470;28;20032;-72
2021/12/10 02:36:42;;;;;;;11.07;4.87;;;;;;;11.35;46.83;99403.13;5052470;28;20031;-71
2021/12/10 02:39:11;;;;;;;9.23;5.03;;;;;;;11.91;47.05;99399.31;5035874;28;20875;-71
2021/12/10 02:41:39;;;;;;;10.13;5.63;;;;;;;12.07;45.69;99390.91;5035011;28;20443;-71
2021/12/10 02:44:08;;;;;;;9.10;4.30;;;;;;;11.59;47.28;99383.06;5038470;28;20115;-71
2021/12/10 02:46:34;;;;;;;10.93;4.97;;;;;;;12.63;44.50;99374.66;5036843;28;20122;-71
2021/12/10 02:48:59;;;;;;;13.60;4.90;;;;;;;12.28;45.75;99376.97;5034662;28;20388;-71
2021/12/10 02:51:26;;;;;;;16.13;5.17;;;;;;;11.00;47.96;99374.72;5034669;28;20028;-71
2021/12/10 02:53:52;;;;;;;9.67;5.20;;;;;;;12.96;44.15;99366.28;5038166;28;20035;-71
2021/12/10 02:56:20;;;;;;;16.27;4.70;;;;;;;12.77;44.09;99366.19;5043955;28;20056;-71
2021/12/10 02:58:49;;;;;;;12.03;4.37;;;;;;;12.99;43.83;99350.41;5052943;28;20079;-71
2021/12/10 03:01:23;;;;;;;11.27;4.63;;;;;;;13.29;43.72;99344.72;5038062;28;20051;-71
2021/12/10 03:03:49;;;;;;;8.33;4.53;;;;;;;12.54;45.08;99351.44;5048030;28;20034;-71
2021/12/10 03:06:16;;;;;;;9.37;4.30;;;;;;;12.70;45.06;99346.41;5040822;28;20517;-71
2021/12/10 03:08:45;;;;;;;12.83;4.37;;;;;;;12.89;43.70;99343.84;5055152;28;20032;-71
2021/12/10 03:11:12;;;;;;;8.33;4.00;;;;;;;13.09;43.11;99344.75;5069527;28;20079;-71
2021/12/10 03:13:39;;;;;;;9.70;3.87;;;;;;;13.46;43.15;99332.63;5044335;28;20055;-71
2021/12/10 03:16:06;;;;;;;11.43;3.90;;;;;;;11.87;46.42;99342.75;5040904;28;20377;-72
2021/12/10 03:18:32;;;;;;;7.90;3.43;;;;;;;12.25;45.88;99332.53;5042721;28;20374;-71
2021/12/10 03:20:58;;;;;;;16.00;4.97;;;;;;;12.34;46.85;99337.41;5044028;28;20044;-70
2021/12/10 03:23:23;;;;;;;10.50;3.37;;;;;;;12.53;46.57;99331.41;5038273;28;20086;-70
2021/12/10 03:25:49;;;;;;;8.30;3.63;;;;;;;11.09;48.95;99328.22;5061163;28;20029;-70
2021/12/10 03:28:14;;;;;;;12.63;4.07;;;;;;;11.54;48.46;99314.34;5061865;28;20029;-70
2021/12/10 03:30:44;;;;;;;7.37;3.80;;;;;;;12.29;47.60;99302.66;5037792;28;20120;-70
2021/12/10 03:33:10;;;;;;;8.70;3.80;;;;;;;12.22;47.62;99301.22;5063382;28;20050;-70
2021/12/10 03:35:42;;;;;;;8.23;5.27;;;;;;;12.73;47.21;99292.09;5053269;28;20508;-70
2021/12/10 03:38:12;;;;;;;12.02;3.83;;;;;;;12.17;48.89;99303.16;5050586;28;20029;-70
2021/12/10 03:40:38;;;;;;;9.50;3.17;;;;;;;11.95;48.80;99297.94;5039124;28;20029;-70
2021/12/10 03:43:04;;;;;;;9.93;3.40;;;;;;;12.29;48.46;99294.81;5054326;28;20374;-70
2021/12/10 03:45:36;;;;;;;12.17;3.90;;;;;;;12.29;47.63;99284.31;5049917;28;20036;-70
2021/12/10 03:48:07;;;;;;;7.63;3.23;;;;;;;12.51;47.44;99280.81;5038275;28;20370;-70
2021/12/10 03:50:32;;;;;;;10.57;3.47;;;;;;;12.53;46.89;99276.38;5049860;28;20028;-70
2021/12/10 03:52:59;;;;;;;10.07;2.63;;;;;;;11.62;48.42;99270.41;5057637;28;20111;-71
2021/12/10 03:55:25;;;;;;;8.70;4.13;;;;;;;12.19;48.57;99268.16;5067239;28;20032;-70
2021/12/10 03:57:53;;;;;;;13.67;3.57;;;;;;;12.21;46.71;99260.22;5060188;28;20025;-70
2021/12/10 04:00:22;;;;;;;12.03;3.50;;;;;;;11.65;48.71;99254.59;5035497;28;20028;-70
2021/12/10 04:02:48;;;;;;;5.37;2.80;;;;;;;12.27;47.73;99246.88;5034578;28;20033;-70
2021/12/10 04:05:14;;;;;;;6.63;3.10;;;;;;;12.97;45.63;99249.09;5032879;28;20033;-70
2021/12/10 04:07:40;;;;;;;6.33;2.63;;;;;;;11.88;48.13;99231.84;5034771;28;20021;-71
2021/12/10 04:10:08;;;;;;;8.67;3.00;;;;;;;12.65;47.25;99223.41;5033646;28;20136;-70
2021/12/10 04:12:34;;;;;;;6.03;3.10;;;;;;;11.64;48.18;99231.94;5045632;28;20093;-70
2021/12/10 04:15:00;;;;;;;8.57;3.40;;;;;;;12.68;46.60;99225.91;5052643;28;20464;-71
2021/12/10 04:17:26;;;;;;;9.80;3.17;;;;;;;12.32;46.83;99223.97;5064568;28;20039;-70
2021/12/10 04:19:52;;;;;;;6.87;2.40;;;;;;;11.38;50.00;99225.97;5045422;28;20021;-71
2021/12/10 04:22:20;;;;;;;11.00;3.50;;;;;;;12.08;48.32;99209.28;5032943;28;20049;-70
2021/12/10 04:24:46;;;;;;;9.60;3.17;;;;;;;12.18;47.21;99202.72;5032949;28;20036;-71
2021/12/10 04:27:15;;;;;;;9.47;3.07;;;;;;;11.94;47.72;99192.38;5030369;28;20040;-71
2021/12/10 04:29:41;;;;;;;5.30;2.50;;;;;;;11.98;48.90;99188.72;5061601;28;20037;-71
2021/12/10 04:32:08;;;;;;;6.90;2.77;;;;;;;11.84;48.55;99193.63;5052527;28;20052;-71
2021/12/10 04:34:34;;;;;;;9.03;2.60;;;;;;;12.51;46.64;99187.31;5049470;28;20033;-71
2021/12/10 04:37:03;;;;;;;5.83;2.03;;;;;;;11.53;48.45;99187.03;5043378;28;20058;-71
2021/12/10 04:39:29;;;;;;;7.90;1.90;;;;;;;11.97;48.21;99181.78;5037811;28;20035;-70
2021/12/10 04:41:55;;;;;;;4.00;1.60;;;;;;;11.97;48.04;99166.06;5037638;28;20480;-71
2021/12/10 04:44:21;;;;;;;3.27;2.20;;;;;;;12.22;47.41;99165.00;5039663;28;20044;-70
2021/12/10 04:46:48;;;;;;;9.90;2.40;;;;;;;12.25;48.31;99159.63;5039197;28;20080;-71
2021/12/10 04:49:14;;;;;;;6.97;2.20;;;;;;;12.08;49.11;99159.53;5033728;28;20032;-70
2021/12/10 04:51:50;;;;;;;6.73;1.80;;;;;;;12.68;47.15;99157.75;5033634;28;20037;-71
2021/12/10 04:54:18;;;;;;;11.37;2.30;;;;;;;12.95;46.49;99154.75;5043117;28;20455;-71
2021/12/10 04:56:44;;;;;;;5.30;1.80;;;;;;;11.62;48.73;99150.03;5054534;28;20103;-70
2021/12/10 04:59:13;;;;;;;6.17;1.50;;;;;;;11.50;48.39;99146.16;5037924;28;20118;-70
2021/12/10 05:01:39;;;;;;;8.33;1.93;;;;;;;11.73;48.93;99146.13;5051795;28;20086;-70
2021/12/10 05:04:07;;;;;;;4.80;1.70;;;;;;;12.36;47.89;99146.06;5036869;28;20477;-70
2021/12/10 05:06:36;;;;;;;5.53;2.03;;;;;;;13.38;44.28;99144.03;5037045;28;20028;-70
2021/12/10 05:09:08;;;;;;;8.23;1.50;;;;;;;12.42;47.68;99134.47;5032251;28;20484;-70
2021/12/10 05:11:33;;;;;;;3.73;1.93;;;;;;;13.04;45.16;99132.50;5032980;28;20025;-71
2021/12/10 05:13:59;;;;;;;7.90;2.10;;;;;;;12.20;46.54;99130.19;5054538;28;20036;-71
2021/12/10 05:16:26;;;;;;;7.13;1.57;;;;;;;13.13;45.56;99129.44;5037764;28;20032;-71
2021/12/10 05:18:59;;;;;;;7.07;1.80;;;;;;;13.03;45.34;99125.56;5032957;28;20111;-71
2021/12/10 05:21:25;;;;;;;;;;;;;;;13.22;45.73;99121.13;5035968;28;20048;-72
2021/12/10 05:23:51;;;;;;;3.20;1.40;;;;;;;13.02;44.82;99124.72;5049362;28;19926;-71
2021/12/10 05:26:17;;;;;;;4.40;1.70;;;;;;;12.56;46.18;99126.84;5035027;28;20110;-70
2021/12/10 05:28:42;;;;;;;4.53;1.50;;;;;;;12.99;44.70;99119.59;5052965;28;20040;-70
2021/12/10 05:31:07;;;;;;;6.23;2.07;;;;;;;13.25;45.29;99122.75;5034214;28;20119;-70
2021/12/10 05:33:34;;;;;;;5.10;2.00;;;;;;;12.96;45.13;99119.75;5051045;28;20075;-71
2021/12/10 05:36:01;;;;;;;4.87;1.40;;;;;;;13.14;45.48;99111.94;5036344;28;20028;-70
2021/12/10 05:38:27;;;;;;;8.63;1.73;;;;;;;13.97;43.03;99112.25;5037791;28;20388;-71
2021/12/10 05:40:54;;;;;;;7.80;1.37;;;;;;;13.53;43.52;99113.56;5061165;28;20484;-71
2021/12/10 05:43:20;;;;;;;3.23;1.43;;;;;;;12.73;44.96;99123.44;5047014;28;20123;-71
2021/12/10 05:45:50;;;;;;;6.43;1.77;;;;;;;13.31;44.69;99122.47;5051448;28;20538;-71
2021/12/10 05:48:17;;;;;;;9.07;1.80;;;;;;;13.93;43.46;99110.69;5065784;28;20078;-70
2021/12/10 05:50:42;;;;;;;8.70;1.23;;;;;;;12.37;47.07;99116.34;5063992;28;20036;-70
2021/12/10 05:53:08;;;;;;;5.03;2.10;;;;;;;12.88;46.04;99114.00;5036806;28;20037;-70
2021/12/10 05:55:35;;;;;;;4.57;1.20;;;;;;;13.88;42.75;99113.56;5043911;28;20028;-70
2021/12/10 05:58:01;;;;;;;8.87;1.50;;;;;;;12.38;45.92;99113.63;5056159;28;20028;-71
2021/12/10 06:00:33;;;;;;;5.80;1.60;;;;;;;12.45;45.73;99105.53;5028420;28;20032;-70
2021/12/10 06:02:59;;;;;;;7.35;1.70;;;;;;;13.96;43.07;99100.91;5050831;28;20102;-71
2021/12/10 06:05:26;;;;;;;5.77;1.27;;;;;;;13.05;45.75;99103.59;5053617;28;20093;-71
2021/12/10 06:07:51;;;;;;;6.73;1.77;;;;;;;13.21;44.51;99108.09;5052410;28;20056;-71
2021/12/10 06:10:19;;;;;;;7.57;1.30;;;;;;;13.07;44.69;99111.38;5033040;28;20464;-71
2021/12/10 06:12:46;;;;;;;7.27;1.20;;;;;;;13.68;43.35;99117.19;5033949;28;20055;-71
2021/12/10 06:15:14;;;;;;;3.77;1.60;;;;;;;13.07;43.75;99122.72;5055426;28;20369;-71
2021/12/10 06:17:39;;;;;;;8.87;1.70;;;;;;;12.88;45.45;99122.72;5049416;28;20028;-70
2021/12/10 06:20:07;;;;;;;3.70;2.00;;;;;;;13.31;44.33;99125.09;5052898;28;20090;-71
2021/12/10 06:22:32;;;;;;;3.60;1.57;;;;;;;12.14;47.15;99122.59;5036598;28;20029;-70
2021/12/10 06:24:58;;;;;;;2.23;1.27;;;;;;;11.76;47.80;99127.66;5039972;28;20127;-70
2021/12/10 06:27:25;;;;;;;6.17;1.47;;;;;;;13.00;45.31;99118.69;5035349;28;20135;-70
2021/12/10 06:29:50;;;;;;;6.33;1.80;;;;;;;13.13;44.93;99113.69;5036571;28;20622;-70
2021/12/10 06:32:16;;;;;;;4.63;1.70;;;;;;;13.55;44.70;99111.72;5035316;28;20108;-70
2021/12/10 06:34:41;;;;;;;5.50;1.90;;;;;;;12.57;46.47;99115.44;5057264;28;20033;-70
2021/12/10 06:37:07;;;;;;;6.53;2.30;;;;;;;12.71;45.46;99123.50;5041106;28;20031;-70
2021/12/10 06:39:33;;;;;;;6.33;2.23;;;;;;;12.63;46.25;99120.38;5053497;28;20027;-70
2021/12/10 06:41:58;;;;;;;3.57;1.70;;;;;;;12.05;47.81;99116.81;5037988;28;20048;-70
2021/12/10 06:44:24;;;;;;;9.93;2.63;;;;;;;13.06;45.21;99115.78;5056373;28;20025;-70
2021/12/10 06:46:50;;;;;;;12.60;2.90;;;;;;;12.37;46.00;99117.16;5062878;28;20028;-70
2021/12/10 06:49:17;;;;;;;5.07;1.67;;;;;;;12.62;46.12;99118.69;5061283;28;20041;-70
2021/12/10 06:51:43;;;;;;;15.10;2.47;;;;;;;13.91;43.33;99123.91;5046195;28;20051;-70
2021/12/10 06:54:08;;;;;;;6.90;1.90;;;;;;;13.42;44.84;99113.25;5036802;28;20115;-70
2021/12/10 06:56:36;;;;;;;3.87;1.80;;;;;;;13.02;45.07;99124.72;5064018;28;20124;-70
2021/12/10 06:59:01;;;;;;;3.87;1.90;;;;;;;13.76;44.38;99114.19;5034250;28;20548;-70
2021/12/10 07:01:30;;;;;;;4.53;1.73;;;;;;;13.69;43.67;99118.91;5046410;28;20111;-70
2021/12/10 07:03:57;;;;;;;8.93;1.90;;;;;;;13.77;42.74;99127.25;5034178;28;20039;-70
2021/12/10 07:06:24;;;;;;;9.87;1.97;;;;;;;13.29;43.85;99128.72;5034654;28;20024;-70
2021/12/10 07:08:51;;;;;;;7.17;2.20;;;;;;;12.84;44.90;99130.81;5047546;28;20599;-70
2021/12/10 07:11:19;;;;;;;4.73;2.27;;;;;;;13.10;44.42;99126.13;5052399;28;20264;-70
2021/12/10 07:13:48;;;;;;;4.43;2.00;;;;;;;13.54;43.14;99125.75;5038459;28;20033;-70
2021/12/10 07:16:14;;;;;;;5.47;1.80;;;;;;;13.46;43.42;99120.03;5050598;28;20170;-70
2021/12/10 07:18:40;;;;;;;10.60;2.47;;;;;;;13.83;41.85;99126.09;5042862;28;20490;-70
2021/12/10 07:21:06;;;;;;;9.17;2.17;;;;;;;13.30;43.55;99131.25;5047439;28;20045;-70
2021/12/10 07:23:32;;;;;;;6.97;2.20;;;;;;;12.94;43.86;99131.22;5036191;28;20041;-70
2021/12/10 07:25:58;;;;;;;4.33;2.30;;;;;;;13.04;44.65;99133.34;5046628;28;20045;-70
2021/12/10 07:28:23;;;;;;;9.67;2.33;;;;;;;13.23;43.54;99138.56;5045616;28;20498;-70
2021/12/10 07:30:50;;;;;;;5.37;2.13;;;;;;;13.83;42.82;99139.22;5042773;28;20164;-70
2021/12/10 07:33:17;;;;;;;9.27;2.70;;;;;;;12.80;44.25;99144.97;5033811;28;20046;-70
2021/12/10 07:35:44;;;;;;;7.27;2.73;;;;;;;13.76;42.89;99141.28;5029877;28;20432;-70
2021/12/10 07:38:09;;;;;;;5.33;2.53;;;;;;;12.80;44.56;99150.22;5030414;28;20036;-70
2021/12/10 07:40:36;;;;;;;6.47;2.47;;;;;;;13.02;44.32;99145.69;5045401;28;20037;-70
2021/12/10 07:43:03;;;;;;;4.20;1.97;;;;;;;13.90;42.97;99148.47;5034796;28;20543;-69
2021/12/10 07:45:29;;;;;;;9.33;2.57;;;;;;;13.26;43.56;99153.31;5032220;28;20031;-69
2021/12/10 07:47:58;;;;;;;4.77;2.50;;;;;;;13.61;43.92;99144.69;5050272;28;20033;-70
2021/12/10 07:50:30;;;;;;;5.70;2.50;;;;;;;12.61;46.35;99155.44;5040635;28;20378;-70
2021/12/10 07:52:56;;;;;;;2.95;1.75;;;;;;;12.88;44.72;99161.22;5045965;28;20028;-70
2021/12/10 07:55:28;;;;;;;5.20;2.70;;;;;;;14.21;42.78;99147.75;5050072;28;20033;-69
2021/12/10 07:57:54;;;;;;;5.00;2.57;;;;;;;13.64;42.51;99155.03;5049039;28;20060;-69
2021/12/10 08:00:23;;;;;;;6.00;2.50;;;;;;;14.54;41.42;99154.81;5034699;28;20116;-69
2021/12/10 08:02:48;;;;;;;5.03;2.13;;;;;;;13.79;42.94;99162.16;5035714;28;20057;-69
2021/12/10 08:05:15;;;;;;;8.50;2.33;;;;;;;13.27;44.23;99160.28;5029185;28;20033;-69
2021/12/10 08:07:41;;;;;;;6.23;2.73;;;;;;;14.16;42.79;99154.19;5030018;28;20031;-69
2021/12/10 08:10:09;;;;;;;8.63;2.57;;;;;;;13.18;45.27;99156.31;5043794;28;20025;-69
2021/12/10 08:12:34;;;;;;;7.10;2.40;;;;;;;13.26;44.32;99152.47;5039399;28;20026;-69
2021/12/10 08:14:59;;;;;;;8.93;2.53;;;;;;;13.01;44.43;99149.25;5029626;28;20172;-70
2021/12/10 08:17:25;;;;;;;6.40;2.43;;;;;;;13.65;42.86;99147.06;5030443;28;20034;-70
2021/12/10 08:19:52;;;;;;;11.50;2.30;;;;;;;14.25;42.41;99159.81;5042709;28;20115;-70
2021/12/10 08:22:18;;;;;;;6.80;3.00;;;;;;;14.17;42.54;99155.91;5062183;28;20088;-70
2021/12/10 08:24:44;;;;;;;10.07;2.50;;;;;;;13.23;43.55;99156.09;5032277;28;20469;-70
2021/12/10 08:27:10;;;;;;;5.83;2.37;;;;;;;13.60;44.04;99166.59;5032475;28;20017;-70
2021/12/10 08:29:35;;;;;;;10.40;2.13;;;;;;;12.67;45.51;99169.13;5056710;28;20409;-70
2021/12/10 08:32:02;;;;;;;6.63;2.53;;;;;;;12.67;45.75;99166.50;5063801;28;20025;-71
2021/12/10 08:34:29;;;;;;;4.70;2.40;;;;;;;13.74;43.98;99159.75;5050903;28;20021;-70
2021/12/10 08:36:55;;;;;;;5.83;2.17;;;;;;;14.28;42.29;99169.31;5050124;28;20032;-71
2021/12/10 08:39:21;;;;;;;6.83;2.30;;;;;;;13.78;43.84;99165.72;5043289;28;20045;-70
2021/12/10 08:41:46;;;;;;;4.07;2.33;;;;;;;14.15;42.96;99169.13;5049741;28;20047;-70
2021/12/10 08:44:13;;;;;;;9.73;2.90;;;;;;;13.27;45.31;99176.03;5032376;28;20040;-71
2021/12/10 08:46:40;;;;;;;7.03;2.90;;;;;;;13.79;43.68;99164.78;5062883;28;20523;-70
2021/12/10 08:49:06;;;;;;;10.30;2.93;;;;;;;13.03;45.50;99183.25;5061462;28;20500;-71
2021/12/10 08:51:44;;;;;;;6.87;2.63;;;;;;;13.51;43.67;99174.00;5045588;28;20024;-71
2021/12/10 08:54:10;;;;;;;5.07;2.20;;;;;;;13.91;44.13;99171.19;5069339;28;20028;-71
2021/12/10 08:56:37;;;;;;;7.90;3.07;;;;;;;14.26;43.13;99176.44;5050302;28;20029;-71
2021/12/10 08:59:04;;;;;;;6.40;2.70;;;;;;;14.71;41.73;99188.16;5038154;28;20370;-71
2021/12/10 09:01:33;;;;;;;3.70;2.50;;;;;;;14.53;41.99;99181.19;5031880;28;20102;-71
2021/12/10 09:04:01;;;;;;;7.87;2.37;;;;;;;14.01;43.43;99182.09;5042199;28;20012;-70
2021/12/10 09:06:30;;;;;;;3.83;1.87;;;;;;;14.66;42.05;99184.91;5049960;28;20028;-71
2021/12/10 09:08:57;;;;;;;5.67;2.00;;;;;;;14.49;42.42;99184.91;5057689;28;20495;-70
2021/12/10 09:11:24;;;;;;;6.00;2.50;;;;;;;14.89;41.66;99190.69;5054702;28;20805;-70
2021/12/10 09:13:49;;;;;;;4.17;2.33;;;;;;;14.70;42.28;99193.47;5060144;28;20113;-71
2021/12/10 09:16:23;;;;;;;7.30;2.50;;;;;;;14.69;41.64;99191.78;5034262;28;20124;-70
2021/12/10 09:18:51;;;;;;;7.33;2.20;;;;;;;14.89;41.91;99206.47;5068879;28;20051;-70
2021/12/10 09:21:17;;;;;;;5.10;2.03;;;;;;;15.82;40.03;99202.25;5051006;28;20549;-70
2021/12/10 09:23:43;;;;;;;3.07;1.83;;;;;;;15.24;40.75;99211.63;5057934;28;20033;-70
2021/12/10 09:26:16;;;;;;;9.63;2.60;;;;;;;15.96;39.84;99193.53;5069737;28;20032;-70
2021/12/10 09:28:45;;;;;;;12.43;2.13;;;;;;;14.76;41.86;99212.41;5064000;28;20021;-70
2021/12/10 09:31:11;;;;;;;6.50;2.67;;;;;;;14.61;41.67;99218.44;5034298;28;20064;-70
2021/12/10 09:33:37;;;;;;;6.13;2.07;;;;;;;15.23;40.38;99225.72;5046515;28;20032;-70
2021/12/10 09:36:03;;;;;;;6.97;2.40;;;;;;;15.26;41.03;99221.13;5062821;28;20032;-70
2021/12/10 09:38:28;;;;;;;4.30;1.83;;;;;;;15.30;41.10;99227.06;5059186;28;20450;-70
2021/12/10 09:41:02;;;;;;;6.97;3.03;;;;;;;15.03;41.20;99225.00;5060185;28;20028;-70
2021/12/10 09:43:32;;;;;;;7.03;1.97;;;;;;;14.52;42.50;99226.78;5006860;28;20035;-70
2021/12/10 09:45:58;;;;;;;5.53;2.20;;;;;;;14.79;42.05;99227.16;4982062;28;20079;-70
2021/12/10 09:48:24;;;;;;;4.00;2.47;;;;;;;15.28;41.07;99234.22;5057326;28;20028;-70
2021/12/10 09:51:04;;;;;;;6.37;2.10;;;;;;;15.48;40.78;99234.88;5064482;28;20032;-70
2021/12/10 09:53:33;;;;;;;5.00;2.17;;;;;;;13.91;43.27;99234.22;5057421;28;20093;-71
2021/12/10 09:56:00;;;;;;;11.57;2.60;;;;;;;14.34;43.36;99237.34;5053172;28;20480;-70
2021/12/10 09:58:26;;;;;;;8.03;2.43;;;;;;;14.34;42.73;99237.34;5050713;28;20448;-70
2021/12/10 10:01:03;;;;;;;6.50;2.30;;;;;;;14.25;42.43;99238.66;5069130;28;20418;-71
2021/12/10 10:03:34;;;;;;;7.50;2.27;;;;;;;15.25;41.02;99243.13;5038915;28;20502;-70
2021/12/10 10:05:59;;;;;;;5.30;2.23;;;;;;;14.84;40.90;99237.47;5057339;28;20556;-71
2021/12/10 10:08:27;;;;;;;14.23;2.07;;;;;;;15.51;40.51;99238.19;5070922;28;20137;-71
2021/12/10 10:10:59;;;;;;;4.93;2.03;;;;;;;15.25;40.98;99242.28;5087928;28;20036;-70
2021/12/10 10:13:33;;;;;;;4.28;2.15;;;;;;;16.03;39.31;99239.69;5043204;28;20476;-70
2021/12/10 10:15:59;;;;;;;9.63;2.40;;;;;;;15.19;40.64;99245.22;5032082;28;20082;-70
2021/12/10 10:18:27;;;;;;;10.73;2.53;;;;;;;15.42;39.99;99236.91;5044127;28;20031;-71
2021/12/10 10:20:57;;;;;;;8.63;2.53;;;;;;;15.71;39.97;99242.34;5031188;28;20041;-70
2021/12/10 10:23:24;;;;;;;6.93;3.10;;;;;;;15.97;39.63;99242.66;5063159;28;20036;-71
2021/12/10 10:25:53;;;;;;;3.47;2.43;;;;;;;16.08;38.66;99242.88;5059809;28;20431;-70
2021/12/10 10:28:19;;;;;;;3.30;2.57;;;;;;;15.61;40.59;99251.69;5046256;28;20111;-71
2021/12/10 10:30:56;;;;;;;7.77;2.30;;;;;;;15.57;40.18;99250.19;5031020;28;20083;-70
2021/12/10 10:33:22;;;;;;;6.60;2.77;;;;;;;15.63;39.78;99252.44;5034881;28;20582;-71
2021/12/10 10:35:53;;;;;;;6.07;2.60;;;;;;;16.17;39.29;99244.16;5038004;28;20028;-70
2021/12/10 10:38:19;;;;;;;9.13;2.77;;;;;;;15.92;38.95;99249.97;5038827;28;20029;-71
2021/12/10 10:40:54;;;;;;;9.40;2.93;;;;;;;15.94;39.45;99242.84;5047476;28;20016;-70
2021/12/10 10:43:21;;;;;;;10.53;2.90;;;;;;;16.51;38.49;99249.22;5057336;28;20025;-71
2021/12/10 10:45:46;;;;;;;5.67;3.53;;;;;;;15.96;39.69;99245.41;5060635;28;20032;-70
2021/12/10 10:48:13;;;;;;;5.67;2.70;;;;;;;14.55;41.49;99250.31;5046546;28;20033;-71
2021/12/10 10:50:47;;;;;;;4.70;2.70;;;;;;;15.34;39.82;99260.19;5044060;28;20067;-71
2021/12/10 10:53:15;;;;;;;6.33;3.00;;;;;;;15.65;40.33;99263.75;5063749;28;20041;-71
2021/12/10 10:55:56;;;;;;;9.23;2.97;;;;;;;15.39;39.67;99247.63;5057351;28;20573;-71
2021/12/10 10:58:26;;;;;;;8.03;3.83;;;;;;;15.54;40.01;99263.53;5034933;28;20035;-71
2021/12/10 11:01:07;;;;;;;12.13;3.30;;;;;;;15.28;40.54;99260.53;5044961;28;20103;-71
2021/12/10 11:03:45;;;;;;;10.07;4.07;;;;;;;15.58;40.53;99267.69;5033957;28;20032;-71
2021/12/10 11:06:17;;;;;;;9.47;4.00;;;;;;;16.43;38.62;99261.06;5048536;28;20119;-71
2021/12/10 11:08:53;;;;;;;16.13;4.13;;;;;;;16.16;39.23;99260.06;5051457;28;20473;-70
2021/12/10 11:11:18;;;;;;;12.37;3.43;;;;;;;16.65;37.92;99259.81;5069491;28;20034;-71
2021/12/10 11:13:59;;;;;;;9.67;3.70;;;;;;;16.48;38.97;99257.31;5059378;28;20024;-70
2021/12/10 11:16:28;;;;;;;9.17;3.70;;;;;;;16.33;38.08;99254.63;5051003;28;20039;-71
2021/12/10 11:19:21;;;;;;;9.67;3.23;;;;;;;15.57;39.89;99265.97;5052116;28;20499;-70
2021/12/10 11:21:49;;;;;;;9.33;3.30;;;;;;;16.08;39.02;99266.59;5053196;28;20130;-70
2021/12/10 11:24:20;;;;;;;9.63;4.23;;;;;;;16.59;38.01;99270.72;5041632;28;20044;-70
2021/12/10 11:26:51;;;;;;;12.03;3.47;;;;;;;16.76;37.93;99267.91;5048595;28;20036;-71
2021/12/10 11:29:48;;;;;;;6.63;3.67;;;;;;;16.78;38.37;99271.28;5054744;28;20430;-70
2021/12/10 11:32:27;;;;;;;11.97;3.77;;;;;;;16.91;38.11;99281.13;5038236;28;20083;-70
2021/12/10 11:34:56;;;;;;;11.33;4.13;;;;;;;16.71;36.95;99279.69;5059283;28;20043;-70
2021/12/10 11:37:44;;;;;;;7.80;3.77;;;;;;;16.65;38.10;99278.25;5060073;28;20472;-70
2021/12/10 11:40:35;;;;;;;7.03;3.73;;;;;;;16.53;38.63;99277.19;5033007;28;20473;-70
2021/12/10 11:43:43;;;;;;;13.53;4.50;;;;;;;16.83;38.22;99283.34;5059522;28;20029;-70
2021/12/10 11:48:55;;;;;;;8.83;3.47;;;;;;;16.25;39.24;99280.59;5054850;28;20045;-70
2021/12/10 11:51:26;;;;;;;9.47;4.03;;;;;;;16.94;38.32;99283.59;5035355;28;20041;-70